Time;durP1;ratioP1;P1;durP2;ratioP2;P2;SDS_P1;SDS_P2;PMS_P1;PMS_P2;Temp;Humidity;BMP_temperature;BMP_pressure;BME280_temperature;BME280_humidity;BME280_pressure;Samples;Min_cycle;Max_cycle;Signal;HPM_P1;HPM_P2
2023/09/15 00:02:11;;;;;;;6.90;1.90;;;;;;;9.83;99.14;100690.80;109519;1252;59577;-68
2023/09/15 00:04:57;;;;;;;6.50;2.00;;;;;;;9.82;99.49;100694.02;109458;1253;61504;-68
2023/09/15 00:07:45;;;;;;;6.10;1.70;;;;;;;9.80;99.14;100690.97;109518;1252;74016;-67
2023/09/15 00:10:39;;;;;;;6.00;1.70;;;;;;;9.81;99.58;100688.48;109540;1252;66703;-67
2023/09/15 00:13:27;;;;;;;6.00;1.60;;;;;;;9.80;99.44;100694.37;109402;1253;73591;-69
2023/09/15 00:16:13;;;;;;;6.40;1.90;;;;;;;9.79;99.62;100694.27;109205;1252;57628;-66
2023/09/15 00:18:59;;;;;;;7.90;1.60;;;;;;;9.77;99.78;100697.92;109310;1257;60333;-65
2023/09/15 00:21:47;;;;;;;6.60;1.70;;;;;;;9.75;99.85;100697.14;109388;1253;73516;-67
2023/09/15 00:24:35;;;;;;;7.60;2.20;;;;;;;9.74;99.92;100695.28;109560;1252;68629;-67
2023/09/15 00:27:21;;;;;;;7.60;1.70;;;;;;;9.72;99.99;100696.30;109529;1252;72480;-67
2023/09/15 00:30:10;;;;;;;7.90;1.70;;;;;;;9.71;99.93;100701.14;109540;1252;57993;-66
2023/09/15 00:32:57;;;;;;;5.80;1.80;;;;;;;9.70;100.00;100700.09;109120;1257;60082;-65
2023/09/15 00:35:44;;;;;;;5.80;1.70;;;;;;;9.70;99.94;100698.72;109030;1257;73039;-67
2023/09/15 00:38:31;;;;;;;7.20;2.20;;;;;;;9.70;100.00;100695.52;109011;1257;69098;-66
2023/09/15 00:41:18;;;;;;;6.50;1.70;;;;;;;9.71;100.00;100698.98;109055;1257;73629;-67
2023/09/15 00:44:04;;;;;;;6.20;1.50;;;;;;;9.73;100.00;100697.15;109058;1257;59818;-69
2023/09/15 00:46:50;;;;;;;5.60;1.20;;;;;;;9.74;100.00;100700.80;109030;1263;61191;-68
2023/09/15 00:49:37;;;;;;;7.00;1.70;;;;;;;9.74;100.00;100704.17;109074;1257;72974;-68
2023/09/15 00:52:25;;;;;;;7.40;1.70;;;;;;;9.75;100.00;100709.41;109164;1257;66644;-68
2023/09/15 00:55:13;;;;;;;5.80;1.80;;;;;;;9.74;100.00;100709.44;109133;1256;73676;-68
2023/09/15 00:58:03;;;;;;;5.70;1.70;;;;;;;9.72;99.93;100711.52;109096;1257;57381;-67
2023/09/15 01:00:51;;;;;;;6.30;1.60;;;;;;;9.69;100.00;100710.85;109109;1257;61094;-67
2023/09/15 01:03:42;;;;;;;6.10;1.50;;;;;;;9.65;100.00;100710.05;109019;1256;73067;-65
2023/09/15 01:06:29;;;;;;;6.10;1.60;;;;;;;9.62;100.00;100713.39;108987;1257;68916;-65
2023/09/15 01:09:16;;;;;;;7.30;1.70;;;;;;;9.60;100.00;100722.20;109076;1253;71268;-68
2023/09/15 01:12:05;;;;;;;6.40;1.60;;;;;;;9.58;100.00;100725.90;109382;1252;58026;-67
2023/09/15 01:14:51;;;;;;;6.20;1.60;;;;;;;9.56;100.00;100722.84;109564;1252;61442;-68
2023/09/15 01:18:05;;;;;;;6.30;1.80;;;;;;;9.54;100.00;100723.27;109501;1252;73981;-66
2023/09/15 01:21:07;;;;;;;6.40;1.80;;;;;;;9.53;100.00;100729.00;109556;1252;66451;-66
2023/09/15 01:24:41;;;;;;;6.90;1.60;;;;;;;9.53;100.00;100730.98;109357;1253;73695;-67
2023/09/15 01:27:34;;;;;;;6.20;1.60;;;;;;;9.53;100.00;100729.38;109369;1253;59393;-67
2023/09/15 01:30:23;;;;;;;6.50;1.80;;;;;;;9.56;100.00;100732.39;109435;1253;58896;-66
2023/09/15 01:33:13;;;;;;;7.10;2.20;;;;;;;9.57;100.00;100733.77;109229;1255;72881;-66
2023/09/15 01:35:59;;;;;;;5.70;1.60;;;;;;;9.56;100.00;100731.69;109282;1252;67730;-67
2023/09/15 01:38:45;;;;;;;6.90;1.60;;;;;;;9.55;100.00;100733.34;109534;1252;72501;-68
2023/09/15 01:41:32;;;;;;;7.00;1.70;;;;;;;9.54;100.00;100733.55;109389;1253;58230;-67
2023/09/15 01:44:19;;;;;;;6.20;1.60;;;;;;;9.53;100.00;100736.77;109553;1252;60179;-66
2023/09/15 01:47:08;;;;;;;5.90;1.60;;;;;;;9.52;100.00;100738.98;109389;1253;73034;-66
2023/09/15 01:49:56;;;;;;;7.50;2.20;;;;;;;9.50;100.00;100740.02;109328;1252;66466;-66
2023/09/15 01:52:45;;;;;;;7.90;1.70;;;;;;;9.46;100.00;100735.64;109238;1254;72450;-66
2023/09/15 01:55:33;;;;;;;5.90;1.60;;;;;;;9.44;100.00;100741.80;109261;1253;59364;-71
2023/09/15 01:58:20;;;;;;;6.70;1.80;;;;;;;9.39;100.00;100739.14;109388;1253;59929;-66
2023/09/15 02:01:07;;;;;;;5.80;1.80;;;;;;;9.40;100.00;100744.89;109254;1252;71698;-65
2023/09/15 02:03:53;;;;;;;6.40;1.70;;;;;;;9.39;100.00;100744.94;109378;1253;68928;-68
2023/09/15 02:06:41;;;;;;;8.20;1.60;;;;;;;9.38;100.00;100750.30;109336;1255;72731;-66
2023/09/15 02:09:28;;;;;;;6.50;1.40;;;;;;;9.38;100.00;100752.09;109517;1252;58909;-66
2023/09/15 02:12:14;;;;;;;7.20;1.90;;;;;;;9.36;100.00;100752.02;109500;1252;58886;-72
2023/09/15 02:15:00;;;;;;;5.80;1.60;;;;;;;9.34;100.00;100753.02;109223;1253;73887;-67
2023/09/15 02:17:49;;;;;;;6.30;1.50;;;;;;;9.31;100.00;100759.05;109541;1253;68951;-68
2023/09/15 02:20:36;;;;;;;5.40;1.60;;;;;;;9.28;100.00;100756.23;109576;1252;72445;-65
2023/09/15 02:23:23;;;;;;;6.50;1.60;;;;;;;9.26;100.00;100755.64;109352;1252;59632;-65
2023/09/15 02:26:09;;;;;;;5.80;1.80;;;;;;;9.26;100.00;100754.79;109532;1252;61291;-66
2023/09/15 02:28:55;;;;;;;5.10;1.30;;;;;;;9.26;100.00;100748.77;109546;1253;74019;-66
2023/09/15 02:31:42;;;;;;;5.60;1.50;;;;;;;9.26;100.00;100752.44;109313;1253;67818;-66
2023/09/15 02:34:28;;;;;;;6.80;1.70;;;;;;;9.27;100.00;100754.17;109522;1253;72523;-65
2023/09/15 02:37:15;;;;;;;6.30;1.80;;;;;;;9.28;100.00;100756.10;109523;1253;60359;-69
2023/09/15 02:40:01;;;;;;;5.90;1.40;;;;;;;9.29;100.00;100757.79;109293;1254;58950;-65
2023/09/15 02:42:47;;;;;;;6.70;1.60;;;;;;;9.30;100.00;100751.35;109499;1253;72788;-66
2023/09/15 02:45:35;;;;;;;8.30;1.70;;;;;;;9.34;100.00;100753.58;109260;1252;67615;-66
2023/09/15 02:48:22;;;;;;;5.90;1.70;;;;;;;9.33;100.00;100749.71;109359;1253;71791;-66
2023/09/15 02:51:08;;;;;;;6.20;1.50;;;;;;;9.40;100.00;100758.70;109394;1253;57805;-66
2023/09/15 02:53:55;;;;;;;5.10;1.30;;;;;;;9.39;100.00;100760.52;109419;1253;59112;-70
2023/09/15 02:56:41;;;;;;;6.70;1.80;;;;;;;9.36;100.00;100764.77;109177;1253;73143;-65
2023/09/15 02:59:28;;;;;;;5.90;2.10;;;;;;;9.34;100.00;100771.66;109359;1253;68572;-64
2023/09/15 03:02:15;;;;;;;5.90;1.60;;;;;;;9.29;100.00;100766.42;109435;1253;72577;-65
2023/09/15 03:05:04;;;;;;;6.10;1.50;;;;;;;9.28;100.00;100769.68;109292;1254;59448;-65
2023/09/15 03:07:50;;;;;;;5.20;1.30;;;;;;;9.28;100.00;100768.98;109219;1259;60437;-64
2023/09/15 03:10:37;;;;;;;5.70;1.60;;;;;;;9.28;100.00;100770.41;109386;1252;72827;-64
2023/09/15 03:13:23;;;;;;;6.00;1.80;;;;;;;9.26;100.00;100773.52;109299;1253;68868;-63
2023/09/15 03:16:14;;;;;;;6.10;1.70;;;;;;;9.28;100.00;100774.85;109531;1253;73613;-64
2023/09/15 03:19:00;;;;;;;6.50;1.50;;;;;;;9.28;100.00;100775.86;109388;1253;57808;-66
2023/09/15 03:21:47;;;;;;;7.40;1.70;;;;;;;9.27;100.00;100771.73;109587;1252;59317;-65
2023/09/15 03:24:33;;;;;;;5.80;1.60;;;;;;;9.24;100.00;100772.10;109456;1253;70989;-64
2023/09/15 03:27:20;;;;;;;6.10;2.00;;;;;;;9.21;100.00;100774.41;109290;1253;68888;-65
2023/09/15 03:30:08;;;;;;;6.60;1.50;;;;;;;9.18;100.00;100779.31;109478;1253;72348;-66
2023/09/15 03:32:54;;;;;;;7.10;1.40;;;;;;;9.17;100.00;100775.48;109263;1253;59552;-67
2023/09/15 03:35:41;;;;;;;6.40;1.40;;;;;;;9.16;100.00;100772.02;109353;1253;60151;-66
2023/09/15 03:38:27;;;;;;;5.70;1.40;;;;;;;9.17;100.00;100773.56;109557;1252;72936;-66
2023/09/15 03:41:15;;;;;;;5.80;1.50;;;;;;;9.19;100.00;100779.26;109373;1252;68994;-66
2023/09/15 03:44:01;;;;;;;6.00;1.60;;;;;;;9.21;100.00;100783.05;109537;1252;73542;-67
2023/09/15 03:46:50;;;;;;;6.80;1.70;;;;;;;9.21;100.00;100786.76;109381;1253;60550;-65
2023/09/15 03:49:37;;;;;;;5.40;1.60;;;;;;;9.21;100.00;100789.94;109430;1253;60154;-65
2023/09/15 03:52:23;;;;;;;6.50;1.60;;;;;;;9.20;100.00;100791.95;109548;1253;71579;-66
2023/09/15 03:55:10;;;;;;;5.60;1.80;;;;;;;9.16;100.00;100796.60;109375;1252;66259;-66
2023/09/15 03:57:56;;;;;;;8.40;1.50;;;;;;;9.14;100.00;100797.64;109340;1253;72682;-66
2023/09/15 04:00:44;;;;;;;6.20;1.50;;;;;;;9.12;100.00;100800.91;109324;1253;59727;-64
2023/09/15 04:03:31;;;;;;;5.40;1.60;;;;;;;9.10;100.00;100801.61;109349;1254;59246;-67
2023/09/15 04:06:18;;;;;;;7.70;1.70;;;;;;;9.06;100.00;100800.08;109257;1253;73833;-66
2023/09/15 04:09:10;;;;;;;6.20;1.50;;;;;;;9.09;100.00;100803.23;109292;1252;68676;-69
2023/09/15 04:11:57;;;;;;;5.60;1.50;;;;;;;9.09;100.00;100809.26;109234;1253;71402;-68
2023/09/15 04:14:43;;;;;;;6.00;1.90;;;;;;;9.11;100.00;100807.92;109481;1252;59506;-67
2023/09/15 04:17:31;;;;;;;6.70;1.70;;;;;;;9.14;100.00;100809.69;109319;1254;60337;-67
2023/09/15 04:20:17;;;;;;;7.00;1.90;;;;;;;9.16;100.00;100813.09;109527;1253;73131;-67
2023/09/15 04:23:13;;;;;;;6.60;1.80;;;;;;;9.18;100.00;100811.02;109286;1253;68694;-68
2023/09/15 04:25:59;;;;;;;6.50;1.50;;;;;;;9.21;100.00;100817.06;109271;1253;72673;-68
2023/09/15 04:28:46;;;;;;;5.20;1.30;;;;;;;9.23;100.00;100818.86;109326;1253;57872;-68
2023/09/15 04:31:37;;;;;;;6.80;1.60;;;;;;;9.25;100.00;100817.38;109485;1253;59222;-67
2023/09/15 04:34:23;;;;;;;8.00;1.90;;;;;;;9.24;100.00;100823.95;109275;1254;73230;-68
2023/09/15 04:37:09;;;;;;;6.00;1.90;;;;;;;9.22;100.00;100823.55;109103;1252;238890;-67
2023/09/15 04:39:56;;;;;;;5.80;1.60;;;;;;;9.22;100.00;100833.45;109443;1253;72517;-68
2023/09/15 04:42:45;;;;;;;6.10;1.50;;;;;;;9.23;100.00;100834.09;109146;1254;57980;-67
2023/09/15 04:45:31;;;;;;;5.80;1.80;;;;;;;9.28;100.00;100836.66;109317;1254;58804;-69
2023/09/15 04:48:18;;;;;;;5.60;1.70;;;;;;;9.32;100.00;100844.15;109182;1254;72000;-69
2023/09/15 04:51:06;;;;;;;6.80;1.90;;;;;;;9.35;100.00;100840.97;109312;1253;68061;-67
2023/09/15 04:53:52;;;;;;;6.30;1.70;;;;;;;9.40;100.00;100846.20;109412;1254;71677;-66
2023/09/15 04:56:39;;;;;;;6.10;1.50;;;;;;;9.46;100.00;100847.64;109197;1254;59523;-65
2023/09/15 04:59:25;;;;;;;7.70;1.60;;;;;;;9.52;100.00;100850.05;109331;1254;58679;-67
2023/09/15 05:02:13;;;;;;;5.60;1.70;;;;;;;9.61;100.00;100854.31;109215;1253;73092;-69
2023/09/15 05:05:00;;;;;;;6.40;2.10;;;;;;;9.70;100.00;100853.77;109255;1254;66459;-67
2023/09/15 05:07:47;;;;;;;8.60;2.10;;;;;;;9.77;100.00;100859.17;109290;1254;73698;-69
2023/09/15 05:10:34;;;;;;;6.90;1.60;;;;;;;9.82;100.00;100856.77;109182;1254;57463;-69
2023/09/15 05:13:20;;;;;;;6.80;1.70;;;;;;;9.86;100.00;100856.16;109319;1254;60085;-71
2023/09/15 05:16:08;;;;;;;5.90;1.60;;;;;;;9.90;100.00;100857.31;109130;1254;72547;-68
2023/09/15 05:18:56;;;;;;;5.50;1.60;;;;;;;9.96;100.00;100854.66;109265;1253;68174;-69
2023/09/15 05:21:42;;;;;;;5.70;1.50;;;;;;;10.04;100.00;100860.19;109298;1254;72552;-67
2023/09/15 05:24:28;;;;;;;5.90;1.80;;;;;;;10.11;100.00;100859.94;109453;1253;59677;-65
2023/09/15 05:27:15;;;;;;;5.20;1.40;;;;;;;10.16;100.00;100861.20;109479;1253;60215;-68
2023/09/15 05:30:03;;;;;;;7.20;1.60;;;;;;;10.23;100.00;100860.73;109296;1256;73964;-70
2023/09/15 05:32:52;;;;;;;6.70;2.00;;;;;;;10.32;100.00;100863.91;109185;1254;67761;-68
2023/09/15 05:35:40;;;;;;;6.10;1.90;;;;;;;10.44;100.00;100863.70;109310;1254;71250;-67
2023/09/15 05:38:27;;;;;;;6.20;1.80;;;;;;;10.53;100.00;100854.77;109318;1254;57271;-69
2023/09/15 05:41:14;;;;;;;6.60;2.10;;;;;;;10.61;100.00;100854.28;109309;1255;60464;-68
2023/09/15 05:44:01;;;;;;;8.60;2.00;;;;;;;10.70;100.00;100857.91;109053;1261;71792;-70
2023/09/15 05:46:48;;;;;;;7.30;2.00;;;;;;;10.82;100.00;100854.84;109010;1257;68764;-71
2023/09/15 05:49:34;;;;;;;6.00;1.80;;;;;;;10.93;100.00;100852.52;109133;1257;72761;-70
2023/09/15 05:52:20;;;;;;;6.70;1.90;;;;;;;11.07;100.00;100855.68;109092;1257;57906;-68
2023/09/15 05:55:08;;;;;;;6.70;2.00;;;;;;;11.22;100.00;100852.21;108996;1257;60275;-69
2023/09/15 05:57:55;;;;;;;8.20;2.40;;;;;;;11.40;100.00;100852.77;109123;1257;73098;-68
2023/09/15 06:00:42;;;;;;;6.60;2.10;;;;;;;11.58;100.00;100856.49;108956;1257;68890;-68
2023/09/15 06:03:28;;;;;;;7.10;2.60;;;;;;;11.77;99.93;100858.04;108987;1257;72624;-68
2023/09/15 06:06:18;;;;;;;9.50;3.50;;;;;;;11.96;99.52;100863.48;109029;1258;57749;-68
2023/09/15 06:09:05;;;;;;;7.70;2.60;;;;;;;12.14;98.94;100863.05;108283;1257;1002568;-68
2023/09/15 06:11:51;;;;;;;8.50;3.00;;;;;;;12.34;98.30;100863.44;109169;1257;73028;-68
2023/09/15 06:14:38;;;;;;;8.40;2.70;;;;;;;12.54;97.55;100868.21;109258;1256;66643;-68
2023/09/15 06:17:25;;;;;;;8.80;2.90;;;;;;;12.79;96.87;100874.95;109456;1254;72713;-67
2023/09/15 06:20:11;;;;;;;6.90;2.40;;;;;;;13.08;96.05;100874.78;109324;1254;58651;-71
2023/09/15 06:22:58;;;;;;;6.80;2.10;;;;;;;13.45;93.86;100878.35;109488;1254;59132;-70
2023/09/15 06:25:46;;;;;;;7.50;2.10;;;;;;;14.10;90.07;100872.22;109507;1254;73111;-67
2023/09/15 06:28:32;;;;;;;7.50;1.90;;;;;;;15.66;87.64;100870.06;109454;1254;67009;-70
2023/09/15 06:31:19;;;;;;;6.10;1.90;;;;;;;17.70;81.35;100870.52;109234;1254;72688;-70
2023/09/15 06:34:05;;;;;;;6.40;1.70;;;;;;;19.93;74.75;100873.44;109486;1254;57323;-71
2023/09/15 06:36:51;;;;;;;6.40;2.10;;;;;;;22.11;66.46;100868.17;109491;1254;59314;-69
2023/09/15 06:39:38;;;;;;;7.20;2.20;;;;;;;23.88;57.43;100870.87;109447;1255;73307;-69
2023/09/15 06:42:24;;;;;;;6.30;1.40;;;;;;;25.40;51.30;100864.88;109244;1254;67769;-68
2023/09/15 06:45:11;;;;;;;6.10;1.30;;;;;;;26.63;45.57;100864.31;109357;1253;74277;-70
2023/09/15 06:48:01;;;;;;;5.40;1.30;;;;;;;27.73;42.75;100864.93;109217;1253;57771;-68
2023/09/15 06:50:47;;;;;;;7.10;1.50;;;;;;;28.76;40.47;100864.50;109549;1252;58997;-70
2023/09/15 06:53:33;;;;;;;6.80;1.40;;;;;;;29.35;38.06;100867.35;109277;1253;71839;-70
2023/09/15 06:56:19;;;;;;;5.20;1.40;;;;;;;30.21;36.16;100869.90;109550;1253;66984;-70
2023/09/15 06:59:05;;;;;;;6.80;1.50;;;;;;;30.85;34.41;100864.56;109350;1253;72636;-72
2023/09/15 07:01:53;;;;;;;5.90;1.20;;;;;;;30.16;33.96;100862.30;109450;1254;58741;-68
2023/09/15 07:04:40;;;;;;;5.10;1.20;;;;;;;28.96;35.63;100864.52;109587;1253;59425;-70
2023/09/15 07:07:30;;;;;;;5.30;1.10;;;;;;;27.86;36.60;100866.55;109457;1253;71568;-71
2023/09/15 07:10:16;;;;;;;5.70;1.40;;;;;;;26.88;37.69;100861.27;109559;1253;66400;-66
2023/09/15 07:13:03;;;;;;;6.40;1.30;;;;;;;26.79;38.59;100860.94;109387;1254;72855;-69
2023/09/15 07:15:49;;;;;;;8.10;1.60;;;;;;;27.99;37.14;100859.41;109510;1253;57818;-70
2023/09/15 07:18:37;;;;;;;5.20;1.20;;;;;;;29.08;35.61;100857.91;109535;1253;58891;-70
2023/09/15 07:21:23;;;;;;;5.20;1.20;;;;;;;29.64;33.30;100860.48;109332;1258;74039;-68
2023/09/15 07:24:11;;;;;;;5.00;1.00;;;;;;;30.35;32.44;100862.37;109305;1257;67907;-68
2023/09/15 07:26:58;;;;;;;5.20;1.10;;;;;;;30.92;31.27;100859.90;109289;1253;73924;-70
2023/09/15 07:29:45;;;;;;;5.20;1.00;;;;;;;31.47;30.05;100859.71;109490;1253;57709;-68
2023/09/15 07:32:31;;;;;;;5.10;1.20;;;;;;;32.07;29.74;100859.98;109365;1253;60288;-68
2023/09/15 07:35:18;;;;;;;5.00;1.20;;;;;;;32.56;28.62;100857.48;109461;1253;73921;-71
2023/09/15 07:38:05;;;;;;;4.80;1.00;;;;;;;32.91;28.38;100853.66;109543;1253;67084;-68
2023/09/15 07:40:54;;;;;;;6.60;1.10;;;;;;;33.16;26.98;100853.30;109337;1253;71558;-68
2023/09/15 07:43:40;;;;;;;6.10;1.20;;;;;;;33.39;26.95;100850.99;109193;1253;57831;-67
2023/09/15 07:46:28;;;;;;;5.20;1.00;;;;;;;33.76;27.34;100852.18;109274;1253;58943;-69
2023/09/15 07:49:14;;;;;;;5.40;1.00;;;;;;;34.08;26.44;100848.19;109296;1252;71644;-69
2023/09/15 07:52:01;;;;;;;6.50;1.10;;;;;;;34.16;25.92;100851.88;109394;1253;66526;-68
2023/09/15 07:54:47;;;;;;;4.50;0.80;;;;;;;33.67;25.72;100847.84;109295;1253;73080;-68
2023/09/15 07:57:37;;;;;;;4.80;0.80;;;;;;;33.18;25.62;100840.71;109564;1255;57800;-67
2023/09/15 08:00:24;;;;;;;5.10;1.00;;;;;;;32.32;27.10;100850.23;109454;1256;60700;-64
2023/09/15 08:03:10;;;;;;;5.50;1.20;;;;;;;31.30;28.48;100845.08;109336;1254;72905;-71
2023/09/15 08:05:56;;;;;;;5.80;1.60;;;;;;;31.04;29.08;100844.86;109448;1252;67806;-67
2023/09/15 08:08:43;;;;;;;5.50;1.40;;;;;;;29.58;31.06;100846.89;109427;1254;72520;-68
2023/09/15 08:11:34;;;;;;;5.50;1.10;;;;;;;28.32;32.78;100846.89;109585;1254;57805;-66
2023/09/15 08:14:21;;;;;;;5.90;1.20;;;;;;;27.11;34.63;100847.84;109422;1254;60362;-67
2023/09/15 08:17:07;;;;;;;5.40;1.30;;;;;;;26.25;36.37;100848.77;109506;1254;72971;-67
2023/09/15 08:20:13;;;;;;;8.00;1.30;;;;;;;25.14;38.06;100856.50;109461;1254;67864;-66
2023/09/15 08:23:00;;;;;;;4.80;1.10;;;;;;;24.17;39.98;100861.89;109402;1254;71416;-66
2023/09/15 08:25:47;;;;;;;6.40;1.40;;;;;;;23.36;41.77;100862.37;109536;1254;57367;-65
2023/09/15 08:28:33;;;;;;;8.40;1.80;;;;;;;22.69;43.66;100862.09;109557;1253;60136;-66
2023/09/15 08:31:22;;;;;;;6.60;1.60;;;;;;;22.23;45.12;100862.73;109543;1253;73758;-67
2023/09/15 08:34:09;;;;;;;5.90;1.40;;;;;;;21.84;46.08;100870.36;109537;1254;67855;-68
2023/09/15 08:36:55;;;;;;;6.50;1.80;;;;;;;21.46;47.52;100864.80;109625;1253;72780;-68
2023/09/15 08:39:45;;;;;;;6.20;1.70;;;;;;;22.34;47.61;100862.38;109520;1253;58108;-67
2023/09/15 08:42:32;;;;;;;7.60;1.80;;;;;;;24.50;44.03;100857.15;109693;1253;59050;-70
2023/09/15 08:45:20;;;;;;;7.00;1.90;;;;;;;25.32;41.39;100855.38;109369;1254;72895;-67
2023/09/15 08:48:09;;;;;;;6.40;1.50;;;;;;;25.40;40.95;100859.49;109490;1257;68746;-67
2023/09/15 08:50:58;;;;;;;6.10;1.30;;;;;;;26.22;39.75;100853.51;109341;1253;73368;-67
2023/09/15 08:53:45;;;;;;;6.30;1.40;;;;;;;25.83;38.52;100856.81;109163;1254;57564;-67
2023/09/15 08:56:32;;;;;;;6.00;1.60;;;;;;;24.85;39.06;100855.80;109281;1254;59205;-68
2023/09/15 08:59:19;;;;;;;7.70;2.00;;;;;;;24.11;40.29;100854.63;109436;1254;73097;-66
2023/09/15 09:02:11;;;;;;;7.60;2.20;;;;;;;24.71;40.14;100858.31;109326;1254;68943;-67
2023/09/15 09:04:58;;;;;;;6.30;1.70;;;;;;;26.37;37.72;100854.09;109225;1254;73441;-69
2023/09/15 09:07:45;;;;;;;6.90;1.60;;;;;;;26.53;36.38;100858.81;109434;1254;57531;-69
2023/09/15 09:10:32;;;;;;;7.00;1.70;;;;;;;25.52;36.97;100864.94;109422;1254;60108;-67
2023/09/15 09:13:20;;;;;;;7.80;1.90;;;;;;;24.61;38.75;100863.24;109394;1254;71872;-65
2023/09/15 09:16:28;;;;;;;7.30;1.80;;;;;;;23.91;40.11;100867.84;109337;1254;68799;-66
2023/09/15 09:19:14;;;;;;;9.80;2.90;;;;;;;25.11;38.67;100868.48;109260;1254;73712;-68
2023/09/15 09:22:01;;;;;;;7.20;2.00;;;;;;;26.80;36.00;100866.05;109412;1254;57541;-68
2023/09/15 09:24:55;;;;;;;5.90;1.30;;;;;;;28.04;33.28;100866.88;109462;1254;58812;-66
2023/09/15 09:27:44;;;;;;;5.20;1.10;;;;;;;27.39;32.71;100869.34;109245;1254;74071;-67
2023/09/15 09:30:31;;;;;;;5.40;1.40;;;;;;;26.47;33.56;100871.02;109278;1254;66255;-66
2023/09/15 09:33:20;;;;;;;5.50;1.30;;;;;;;26.88;34.25;100873.10;109488;1254;72294;-68
2023/09/15 09:36:15;;;;;;;7.50;1.40;;;;;;;28.20;32.22;100873.34;109447;1254;57872;-67
2023/09/15 09:39:04;;;;;;;6.60;1.40;;;;;;;29.64;29.97;100874.63;109295;1253;58698;-68
2023/09/15 09:41:51;;;;;;;6.10;1.60;;;;;;;30.59;28.57;100876.05;109348;1254;73092;-67
2023/09/15 09:44:37;;;;;;;5.70;1.20;;;;;;;31.42;26.45;100870.08;109456;1254;67708;-69
2023/09/15 09:47:25;;;;;;;5.00;1.10;;;;;;;32.22;25.44;100867.55;109408;1254;73190;-69
2023/09/15 09:50:12;;;;;;;5.20;1.20;;;;;;;32.82;23.83;100871.09;109228;1253;57317;-71
2023/09/15 09:52:58;;;;;;;5.50;1.30;;;;;;;33.49;22.75;100868.11;109501;1254;59481;-69
2023/09/15 09:55:45;;;;;;;5.70;1.10;;;;;;;34.20;22.35;100867.45;109203;1254;71858;-70
2023/09/15 09:58:36;;;;;;;4.70;1.20;;;;;;;34.93;21.56;100865.91;109407;1254;68957;-68
2023/09/15 10:01:22;;;;;;;4.30;0.90;;;;;;;35.16;20.93;100862.95;109233;1254;73467;-68
2023/09/15 10:04:08;;;;;;;4.90;0.90;;;;;;;35.48;20.64;100859.93;109269;1254;58046;-68
2023/09/15 10:06:56;;;;;;;6.50;0.90;;;;;;;35.80;20.54;100864.66;109192;1253;60203;-67
2023/09/15 10:09:44;;;;;;;5.60;1.20;;;;;;;36.16;20.03;100863.83;109247;1257;72043;-70
2023/09/15 10:12:31;;;;;;;4.60;1.20;;;;;;;36.53;19.28;100861.17;109424;1254;68850;-67
2023/09/15 10:15:17;;;;;;;4.50;0.90;;;;;;;36.91;18.14;100857.98;109300;1254;72573;-69
2023/09/15 10:18:05;;;;;;;4.70;1.00;;;;;;;36.88;18.09;100860.47;109229;1254;57448;-69
2023/09/15 10:20:55;;;;;;;5.10;1.10;;;;;;;36.74;18.40;100859.29;109455;1254;61061;-68
2023/09/15 10:23:41;;;;;;;6.30;1.10;;;;;;;36.65;19.07;100860.39;109220;1254;71863;-66
2023/09/15 10:26:28;;;;;;;5.90;1.20;;;;;;;36.48;19.24;100855.75;109265;1254;66774;-68
2023/09/15 10:29:15;;;;;;;5.20;1.30;;;;;;;36.20;19.14;100849.27;109299;1254;72539;-68
2023/09/15 10:32:05;;;;;;;4.50;0.90;;;;;;;36.07;19.52;100853.27;109347;1254;57395;-68
2023/09/15 10:34:52;;;;;;;5.20;1.00;;;;;;;35.91;19.49;100851.83;109408;1254;60379;-68
2023/09/15 10:37:42;;;;;;;5.70;1.00;;;;;;;35.61;20.09;100847.19;109418;1254;73208;-67
2023/09/15 10:40:41;;;;;;;4.80;1.10;;;;;;;35.40;20.43;100845.94;109235;1253;68817;-68
2023/09/15 10:43:27;;;;;;;5.70;1.30;;;;;;;35.29;20.46;100849.16;109344;1254;73460;-72
2023/09/15 10:46:14;;;;;;;6.20;1.20;;;;;;;35.02;20.65;100850.23;109255;1254;57556;-68
2023/09/15 10:49:13;;;;;;;5.00;1.40;;;;;;;34.77;20.95;100849.56;109278;1254;60430;-67
2023/09/15 10:52:01;;;;;;;4.80;1.00;;;;;;;34.71;20.61;100846.45;109242;1254;73777;-70
2023/09/15 10:54:49;;;;;;;5.10;1.10;;;;;;;34.54;21.09;100855.79;109264;1253;68053;-68
2023/09/15 10:57:36;;;;;;;4.90;1.20;;;;;;;34.33;20.88;100849.92;109383;1254;73932;-68
2023/09/15 11:00:24;;;;;;;5.40;1.00;;;;;;;34.21;21.20;100842.14;109154;1253;59002;-68
2023/09/15 11:03:11;;;;;;;5.10;1.00;;;;;;;34.01;20.91;100839.61;109431;1253;59976;-68
2023/09/15 11:05:58;;;;;;;5.60;0.90;;;;;;;33.88;21.54;100838.77;109231;1254;74011;-67
2023/09/15 11:08:48;;;;;;;4.80;1.40;;;;;;;33.80;21.81;100836.36;109291;1254;68751;-69
2023/09/15 11:11:34;;;;;;;5.30;1.10;;;;;;;33.63;21.86;100837.11;109419;1254;73072;-68
2023/09/15 11:14:23;;;;;;;4.70;1.00;;;;;;;33.51;21.81;100843.65;109411;1254;57863;-67
2023/09/15 11:17:10;;;;;;;4.70;1.00;;;;;;;33.46;21.61;100841.48;109290;1253;60142;-66
2023/09/15 11:19:57;;;;;;;4.90;1.00;;;;;;;33.19;22.06;100835.38;109344;1253;73777;-68
2023/09/15 11:22:44;;;;;;;5.10;1.10;;;;;;;32.88;22.47;100837.20;109401;1253;69210;-67
2023/09/15 11:25:32;;;;;;;5.30;1.00;;;;;;;32.45;22.58;100835.85;109346;1254;72237;-69
2023/09/15 11:28:19;;;;;;;5.20;1.20;;;;;;;32.20;23.41;100830.14;109202;1257;58258;-67
2023/09/15 11:31:08;;;;;;;4.70;1.00;;;;;;;31.85;23.32;100832.11;109406;1254;59222;-69
2023/09/15 11:33:59;;;;;;;5.30;1.50;;;;;;;31.42;24.03;100829.42;109245;1254;73014;-67
2023/09/15 11:36:45;;;;;;;4.70;1.10;;;;;;;31.21;24.64;100828.54;109339;1254;67725;-68
2023/09/15 11:39:32;;;;;;;5.00;1.20;;;;;;;30.89;25.23;100828.45;109411;1254;73567;-69
2023/09/15 11:42:19;;;;;;;4.70;1.10;;;;;;;30.68;25.59;100827.21;109533;1254;57588;-69
2023/09/15 11:45:06;;;;;;;5.40;1.10;;;;;;;30.39;26.02;100824.98;109340;1254;61183;-69
2023/09/15 11:47:55;;;;;;;8.20;1.20;;;;;;;29.88;26.85;100824.90;109467;1253;71427;-68
2023/09/15 11:50:43;;;;;;;5.70;1.10;;;;;;;29.53;27.73;100828.52;109225;1254;66903;-69
2023/09/15 11:53:29;;;;;;;5.80;1.20;;;;;;;29.30;27.96;100822.92;109233;1254;72570;-70
2023/09/15 11:56:19;;;;;;;6.20;1.30;;;;;;;29.05;28.39;100824.55;109217;1254;58921;-70
2023/09/15 11:59:06;;;;;;;5.80;1.10;;;;;;;28.81;28.40;100819.48;109229;1253;61308;-70
2023/09/15 12:01:56;;;;;;;5.20;1.20;;;;;;;28.53;28.77;100814.45;109335;1253;73226;-67
2023/09/15 12:04:43;;;;;;;6.60;1.70;;;;;;;28.29;29.16;100817.41;109268;1254;66940;-68
2023/09/15 12:07:29;;;;;;;6.30;1.10;;;;;;;27.64;29.88;100815.20;109173;1253;71621;-68
2023/09/15 12:10:21;;;;;;;7.70;1.40;;;;;;;27.29;31.15;100811.70;109198;1253;57402;-70
2023/09/15 12:13:08;;;;;;;6.60;1.60;;;;;;;26.58;31.97;100813.90;109463;1253;58946;-67
2023/09/15 12:15:58;;;;;;;5.20;1.20;;;;;;;25.79;33.52;100816.58;109472;1253;73053;-68
2023/09/15 12:18:49;;;;;;;6.10;1.10;;;;;;;25.26;34.97;100816.30;109261;1254;66695;-70
2023/09/15 12:21:36;;;;;;;5.30;1.40;;;;;;;24.64;35.87;100816.20;109268;1254;72575;-71
2023/09/15 12:24:23;;;;;;;6.60;1.30;;;;;;;24.07;37.02;100812.61;109242;1253;58236;-71
2023/09/15 12:27:11;;;;;;;5.80;1.40;;;;;;;23.67;38.37;100811.10;109445;1254;60389;-70
2023/09/15 12:30:06;;;;;;;5.60;1.70;;;;;;;23.37;39.14;100809.67;109377;1254;73128;-68
2023/09/15 12:32:53;;;;;;;5.70;1.40;;;;;;;23.09;39.94;100810.08;109325;1254;67764;-68
2023/09/15 12:35:39;;;;;;;5.40;1.20;;;;;;;22.79;39.97;100808.22;109419;1253;71262;-69
2023/09/15 12:38:28;;;;;;;6.70;1.30;;;;;;;22.43;40.58;100809.27;109288;1254;57765;-68
2023/09/15 12:41:16;;;;;;;5.30;1.30;;;;;;;22.12;41.58;100803.05;109202;1254;59019;-70
2023/09/15 12:44:03;;;;;;;5.90;1.40;;;;;;;21.87;42.33;100803.58;109028;1257;73853;-66
2023/09/15 12:46:49;;;;;;;5.20;1.30;;;;;;;21.50;42.75;100805.16;109015;1257;67806;-67
2023/09/15 12:49:35;;;;;;;4.70;1.20;;;;;;;21.23;43.49;100804.90;108957;1257;70914;-68
2023/09/15 12:52:22;;;;;;;4.80;1.00;;;;;;;21.05;43.93;100800.30;109130;1256;57735;-69